Time;durP1;ratioP1;P1;durP2;ratioP2;P2;SDS_P1;SDS_P2;PMS_P1;PMS_P2;Temp;Humidity;BMP_temperature;BMP_pressure;BME280_temperature;BME280_humidity;BME280_pressure;Samples;Min_cycle;Max_cycle;Signal;HPM_P1;HPM_P2
2022/11/17 00:00:24;;;;;;;21.30;6.65;;;;;;;13.86;100.00;98701.09;4984267;28;20284;-63
2022/11/17 00:02:50;;;;;;;14.93;6.30;;;;;;;13.88;100.00;98710.50;4983786;28;20042;-61
2022/11/17 00:05:16;;;;;;;13.90;6.60;;;;;;;13.92;100.00;98700.00;4986253;28;20077;-62
2022/11/17 00:07:47;;;;;;;27.40;7.13;;;;;;;13.84;100.00;98692.50;4984848;28;20038;-64
2022/11/17 00:10:14;;;;;;;15.07;7.03;;;;;;;13.80;100.00;98705.66;4989052;28;20042;-62
2022/11/17 00:15:24;;;;;;;17.57;7.03;;;;;;;13.67;100.00;98677.44;4986058;28;20045;-61
2022/11/17 00:21:17;;;;;;;22.90;7.47;;;;;;;13.57;100.00;98677.47;4984784;28;20277;-60
2022/11/17 00:23:22;;;;;;;18.93;7.43;;;;;;;13.77;100.00;98649.78;4982994;28;20277;-60
2022/11/17 00:25:48;;;;;;;13.98;7.00;;;;;;;13.74;100.00;98639.59;4983077;28;20265;-61
2022/11/17 00:28:13;;;;;;;18.97;6.73;;;;;;;13.72;100.00;98618.34;4983333;28;20068;-59
2022/11/17 00:36:07;;;;;;;15.67;5.67;;;;;;;13.80;100.00;98602.78;4985020;28;20277;-61
2022/11/17 00:38:32;;;;;;;14.20;6.43;;;;;;;13.77;100.00;98609.47;4984593;28;20281;-61
2022/11/17 00:40:58;;;;;;;19.55;6.78;;;;;;;13.86;100.00;98605.19;4988523;28;20024;-61
2022/11/17 00:43:23;;;;;;;15.43;6.17;;;;;;;13.86;100.00;98594.44;4986675;28;20035;-60
2022/11/17 00:45:49;;;;;;;14.20;6.37;;;;;;;13.85;100.00;98597.38;4988384;28;20353;-60
2022/11/17 00:48:15;;;;;;;13.45;6.28;;;;;;;13.88;100.00;98570.78;4986032;28;20035;-61
2022/11/17 00:50:41;;;;;;;13.80;6.47;;;;;;;13.82;100.00;98563.81;4991657;28;20056;-62
2022/11/17 00:53:06;;;;;;;13.10;6.10;;;;;;;13.73;100.00;98552.03;4991870;28;20039;-61
2022/11/17 00:55:32;;;;;;;11.82;5.63;;;;;;;13.85;100.00;98546.34;4992055;28;20082;-61
2022/11/17 00:57:57;;;;;;;13.38;5.45;;;;;;;13.73;100.00;98535.91;4991149;28;20103;-61
2022/11/17 01:00:24;;;;;;;15.15;5.68;;;;;;;13.94;100.00;98533.94;4990983;28;20042;-60
2022/11/17 01:02:49;;;;;;;15.15;5.35;;;;;;;13.72;100.00;98550.41;4993730;28;20102;-61
2022/11/17 01:05:15;;;;;;;18.13;6.97;;;;;;;13.80;100.00;98547.16;4992273;28;20030;-60
2022/11/17 01:07:42;;;;;;;18.20;5.53;;;;;;;14.02;100.00;98548.69;4991465;28;20076;-61
2022/11/17 01:10:08;;;;;;;14.20;5.77;;;;;;;14.14;100.00;98532.25;4990156;28;20046;-61
2022/11/17 01:12:34;;;;;;;11.15;4.80;;;;;;;13.85;100.00;98516.78;4990861;28;20260;-59
2022/11/17 01:14:59;;;;;;;15.23;5.40;;;;;;;13.92;100.00;98536.09;4993996;28;20066;-61
2022/11/17 01:17:25;;;;;;;12.07;5.03;;;;;;;13.75;100.00;98549.88;4991653;28;20043;-59
2022/11/17 01:19:50;;;;;;;14.43;5.57;;;;;;;13.79;100.00;98529.44;4989743;28;20035;-60
2022/11/17 01:22:16;;;;;;;12.30;5.40;;;;;;;13.82;100.00;98536.94;4989333;28;20274;-59
2022/11/17 01:24:42;;;;;;;10.35;5.28;;;;;;;13.52;100.00;98533.25;4988115;28;20273;-59
2022/11/17 01:27:08;;;;;;;12.70;6.22;;;;;;;13.82;100.00;98539.63;4991684;28;20042;-58
2022/11/17 01:29:33;;;;;;;14.43;5.43;;;;;;;13.86;100.00;98527.28;4989111;28;20062;-59
2022/11/17 01:31:59;;;;;;;13.48;5.38;;;;;;;13.85;100.00;98516.78;4988927;28;20567;-59
2022/11/17 01:34:25;;;;;;;12.03;4.90;;;;;;;13.82;100.00;98485.91;4991162;28;20090;-60
2022/11/17 01:39:35;;;;;;;10.67;5.80;;;;;;;13.70;100.00;98515.75;4990339;28;20038;-60
2022/11/17 01:42:03;;;;;;;9.80;5.07;;;;;;;13.64;100.00;98519.53;4991236;28;20265;-59
2022/11/17 01:44:56;;;;;;;12.03;6.77;;;;;;;13.48;100.00;98516.09;4991198;28;20038;-61
2022/11/17 01:47:31;;;;;;;12.40;6.53;;;;;;;13.40;100.00;98487.88;4993488;28;20369;-60
2022/11/17 01:50:05;;;;;;;15.07;5.87;;;;;;;13.50;100.00;98486.28;4991292;28;20343;-60
2022/11/17 01:52:34;;;;;;;11.47;6.40;;;;;;;13.55;100.00;98480.91;4989532;28;20278;-61
2022/11/17 01:55:01;;;;;;;16.43;6.50;;;;;;;13.52;100.00;98482.25;4988635;28;20277;-60
2022/11/17 01:57:37;;;;;;;13.07;6.60;;;;;;;13.70;100.00;98486.22;4991683;28;20281;-61
2022/11/17 02:00:06;;;;;;;13.47;6.83;;;;;;;13.73;100.00;98487.56;4987540;28;20277;-61
2022/11/17 02:02:34;;;;;;;14.23;7.20;;;;;;;13.72;100.00;98502.84;4992188;28;20275;-59
2022/11/17 02:05:26;;;;;;;14.27;7.43;;;;;;;13.69;100.00;98470.38;4987574;28;20567;-60
2022/11/17 02:07:55;;;;;;;9.47;5.23;;;;;;;13.62;100.00;98476.03;4991276;28;20277;-60
2022/11/17 02:10:21;;;;;;;9.40;5.33;;;;;;;13.89;100.00;98470.31;4990386;28;20778;-58
2022/11/17 02:12:47;;;;;;;10.18;5.03;;;;;;;13.80;100.00;98471.94;5004741;28;20261;-58
2022/11/17 02:15:12;;;;;;;10.48;4.85;;;;;;;13.71;100.00;98487.03;4992785;28;20054;-59
2022/11/17 02:17:41;;;;;;;11.20;5.30;;;;;;;13.59;100.00;98465.84;4990962;28;20030;-57
2022/11/17 02:20:11;;;;;;;8.27;5.33;;;;;;;13.78;100.00;98457.97;4991811;28;20050;-61
2022/11/17 02:22:53;;;;;;;18.47;6.27;;;;;;;13.76;100.00;98454.78;4985987;28;20335;-60
2022/11/17 02:25:40;;;;;;;11.20;4.50;;;;;;;13.77;100.00;98472.50;4989886;28;20285;-58
2022/11/17 02:28:26;;;;;;;11.57;4.93;;;;;;;13.77;100.00;98469.81;4988955;28;20324;-59
2022/11/17 02:31:23;;;;;;;8.80;4.70;;;;;;;13.80;100.00;98455.03;4991704;28;20094;-60
2022/11/17 02:33:56;;;;;;;8.47;4.87;;;;;;;13.79;100.00;98464.97;4991838;28;20269;-58
2022/11/17 02:36:30;;;;;;;10.77;5.03;;;;;;;14.07;100.00;98454.66;4990346;28;20276;-59
2022/11/17 02:39:07;;;;;;;7.53;3.80;;;;;;;14.00;100.00;98452.25;4992091;28;20303;-60
2022/11/17 02:41:37;;;;;;;10.63;4.55;;;;;;;13.88;100.00;98459.81;4991604;28;20292;-59
2022/11/17 02:44:30;;;;;;;9.93;4.00;;;;;;;13.99;100.00;98441.75;4991733;28;20035;-60
2022/11/17 02:47:02;;;;;;;10.73;4.40;;;;;;;14.26;100.00;98443.22;4990218;28;20363;-61
2022/11/17 02:49:35;;;;;;;7.13;4.10;;;;;;;13.97;100.00;98435.88;4991480;28;20272;-60
2022/11/17 02:52:02;;;;;;;9.33;4.00;;;;;;;14.07;100.00;98430.47;4989472;28;20277;-60
2022/11/17 02:54:30;;;;;;;9.70;4.33;;;;;;;13.95;100.00;98424.59;4991836;28;20291;-60
2022/11/17 02:56:57;;;;;;;8.73;4.77;;;;;;;13.90;100.00;98412.81;4992009;28;20348;-59
2022/11/17 02:59:39;;;;;;;6.22;3.92;;;;;;;13.88;100.00;98422.22;4992232;28;20289;-60
2022/11/17 03:02:25;;;;;;;8.87;4.50;;;;;;;13.96;100.00;98416.28;5014957;28;20053;-60
2022/11/17 03:05:04;;;;;;;7.70;3.90;;;;;;;14.06;100.00;98410.00;4992030;28;20387;-60
2022/11/17 03:07:49;;;;;;;10.40;4.40;;;;;;;14.00;100.00;98422.69;4987089;28;20284;-60
2022/11/17 03:11:16;;;;;;;5.60;3.13;;;;;;;14.32;100.00;98388.34;4991390;28;20276;-60
2022/11/17 03:13:54;;;;;;;5.00;3.00;;;;;;;14.37;100.00;98393.69;4980022;28;20281;-60
2022/11/17 03:16:36;;;;;;;6.10;2.83;;;;;;;14.22;100.00;98385.72;4989353;28;20280;-60
2022/11/17 03:19:19;;;;;;;8.60;3.43;;;;;;;14.33;100.00;98377.31;4990552;28;20344;-61
2022/11/17 03:22:12;;;;;;;5.70;2.80;;;;;;;14.34;100.00;98378.91;4991527;28;20265;-60
2022/11/17 03:24:49;;;;;;;8.50;2.27;;;;;;;14.45;100.00;98352.75;4988820;28;20264;-60
2022/11/17 03:27:28;;;;;;;5.17;2.50;;;;;;;14.70;100.00;98350.91;5023065;28;20303;-60
2022/11/17 03:29:58;;;;;;;7.73;3.00;;;;;;;14.68;100.00;98345.00;4989789;28;20288;-61
2022/11/17 03:32:31;;;;;;;9.63;2.50;;;;;;;14.74;100.00;98343.91;4989473;28;20289;-61
2022/11/17 03:35:02;;;;;;;8.37;2.40;;;;;;;14.51;100.00;98347.31;4989865;28;20284;-60
2022/11/17 03:37:33;;;;;;;5.80;2.00;;;;;;;14.67;100.00;98353.38;4991100;28;20261;-60
2022/11/17 03:40:03;;;;;;;5.50;2.13;;;;;;;14.74;100.00;98335.81;5003735;28;20633;-61
2022/11/17 03:42:33;;;;;;;6.23;2.90;;;;;;;14.65;100.00;98350.97;4990029;28;20282;-60
2022/11/17 03:45:01;;;;;;;3.87;2.57;;;;;;;14.63;100.00;98345.84;4988607;28;20276;-61
2022/11/17 03:47:29;;;;;;;7.73;3.30;;;;;;;14.59;100.00;98352.88;4991709;28;20329;-60
2022/11/17 03:50:14;;;;;;;6.87;2.60;;;;;;;14.35;100.00;98352.84;4990167;28;20269;-60
2022/11/17 03:52:41;;;;;;;2.97;2.10;;;;;;;14.67;100.00;98345.31;4990763;28;20280;-61
2022/11/17 03:55:07;;;;;;;5.40;1.90;;;;;;;14.58;100.00;98335.16;4991355;28;20300;-61
2022/11/17 03:58:04;;;;;;;4.65;2.45;;;;;;;14.71;100.00;98336.41;4991092;28;20276;-61
2022/11/17 04:00:32;;;;;;;5.20;2.17;;;;;;;14.96;100.00;98341.81;4995065;28;20050;-60
2022/11/17 04:02:57;;;;;;;4.87;2.40;;;;;;;14.83;100.00;98336.00;4991102;28;20281;-61
2022/11/17 04:05:23;;;;;;;3.15;2.20;;;;;;;14.41;100.00;98338.25;4989701;28;20265;-61
2022/11/17 04:07:49;;;;;;;7.47;2.00;;;;;;;14.51;100.00;98331.19;4988656;28;20069;-63
2022/11/17 04:10:17;;;;;;;9.53;2.70;;;;;;;14.36;100.00;98321.38;4991053;28;20265;-61
2022/11/17 04:15:55;;;;;;;4.03;1.50;;;;;;;14.39;100.00;98313.56;4989734;28;20272;-60
2022/11/17 04:18:16;;;;;;;4.83;1.40;;;;;;;14.49;100.00;98308.06;4987864;28;20288;-61
2022/11/17 04:20:42;;;;;;;3.85;1.88;;;;;;;14.44;100.00;98307.34;4990340;28;20261;-61
2022/11/17 04:23:12;;;;;;;8.32;1.50;;;;;;;14.31;100.00;98301.50;4991407;28;20065;-61
2022/11/17 04:28:36;;;;;;;2.23;0.90;;;;;;;14.11;100.00;98291.75;4994399;28;20293;-61
2022/11/17 04:31:03;;;;;;;3.30;1.00;;;;;;;14.18;100.00;98294.09;4992681;28;20322;-61
2022/11/17 04:33:29;;;;;;;4.30;1.27;;;;;;;14.41;100.00;98279.13;4994581;28;20718;-60
2022/11/17 04:35:55;;;;;;;10.50;1.38;;;;;;;14.36;100.00;98276.47;4994181;28;20268;-60
2022/11/17 04:38:21;;;;;;;4.78;1.55;;;;;;;14.65;100.00;98275.66;4991439;28;20035;-59
2022/11/17 04:43:31;;;;;;;4.83;1.77;;;;;;;14.30;100.00;98264.97;4992515;28;20130;-60
2022/11/17 04:46:00;;;;;;;2.17;0.80;;;;;;;14.45;100.00;98269.38;4992175;28;20273;-60
2022/11/17 04:48:27;;;;;;;1.37;0.90;;;;;;;14.66;100.00;98268.41;4993847;28;20026;-61
2022/11/17 04:50:54;;;;;;;3.97;1.10;;;;;;;14.47;100.00;98269.91;4993893;28;20280;-60
2022/11/17 04:53:20;;;;;;;1.73;1.20;;;;;;;14.62;100.00;98270.84;4992684;28;20284;-58
2022/11/17 04:55:46;;;;;;;4.25;1.58;;;;;;;14.36;100.00;98262.22;5004260;28;20285;-60
2022/11/17 04:58:12;;;;;;;4.00;1.63;;;;;;;14.36;100.00;98262.22;4994407;28;20069;-62
2022/11/17 05:00:38;;;;;;;2.70;1.48;;;;;;;14.58;100.00;98257.16;4990247;28;20060;-60
2022/11/17 05:03:03;;;;;;;7.30;2.10;;;;;;;14.44;100.00;98253.56;5009078;28;20051;-60
2022/11/17 05:05:29;;;;;;;7.32;2.78;;;;;;;14.67;100.00;98256.56;5001771;28;20042;-60
2022/11/17 05:07:54;;;;;;;8.63;3.40;;;;;;;14.63;100.00;98254.41;4992441;28;20035;-59
2022/11/17 05:13:20;;;;;;;8.87;3.27;;;;;;;18.66;100.00;98257.25;5004692;28;20306;-59
2022/11/17 05:13:21;;;;;;;10.90;4.10;;;;;;;20.10;100.00;98245.97;4989572;28;20111;-58
2022/11/17 05:18:42;;;;;;;9.53;3.47;;;;;;;15.01;100.00;98224.16;4992920;28;20268;-59
2022/11/17 05:21:10;;;;;;;7.97;3.50;;;;;;;15.74;100.00;98239.28;4993563;28;20269;-58
2022/11/17 05:23:54;;;;;;;10.13;3.60;;;;;;;14.53;100.00;98224.13;4988535;28;20269;-58
2022/11/17 05:26:21;;;;;;;11.23;3.13;;;;;;;14.24;100.00;98219.59;4988207;28;20287;-60
2022/11/17 05:28:48;;;;;;;6.80;3.40;;;;;;;14.32;100.00;98230.53;4993199;28;20272;-59
2022/11/17 05:31:14;;;;;;;5.90;3.08;;;;;;;14.22;100.00;98230.66;4993197;28;20383;-59
2022/11/17 05:33:40;;;;;;;12.52;3.47;;;;;;;14.06;100.00;98243.41;4991051;28;20047;-60
2022/11/17 05:36:07;;;;;;;6.93;2.43;;;;;;;14.16;100.00;98229.06;4992735;28;20031;-58
2022/11/17 05:38:32;;;;;;;4.45;2.13;;;;;;;13.91;100.00;98241.66;4993495;28;20307;-60
2022/11/17 05:40:58;;;;;;;4.63;2.60;;;;;;;14.18;100.00;98241.16;4998780;28;20043;-59
2022/11/17 05:43:24;;;;;;;11.38;2.50;;;;;;;14.35;100.00;98229.19;4990987;28;20035;-59
2022/11/17 05:45:49;;;;;;;8.35;2.60;;;;;;;14.10;100.00;98228.34;4988790;28;20038;-59
2022/11/17 05:48:15;;;;;;;18.23;2.67;;;;;;;14.17;100.00;98231.47;5009412;28;20042;-59
2022/11/17 05:50:41;;;;;;;7.38;2.33;;;;;;;14.42;100.00;98239.59;4993585;28;20295;-57
2022/11/17 05:53:07;;;;;;;10.07;2.10;;;;;;;14.34;100.00;98232.94;4989081;28;20058;-58
2022/11/17 05:55:33;;;;;;;8.45;2.00;;;;;;;14.21;100.00;98245.16;4990286;28;20110;-56
2022/11/17 05:58:10;;;;;;;11.43;2.60;;;;;;;14.15;100.00;98273.97;4988302;28;20058;-56
2022/11/17 06:00:38;;;;;;;18.87;3.33;;;;;;;14.08;100.00;98235.88;4987503;28;20023;-56
2022/11/17 06:03:15;;;;;;;11.67;2.60;;;;;;;13.78;100.00;98256.53;4987911;28;20276;-57
2022/11/17 06:05:41;;;;;;;;;;;;;;;14.34;100.00;98257.16;4989594;28;20275;-58
2022/11/17 06:08:07;;;;;;;10.07;2.50;;;;;;;14.46;100.00;98262.94;4989647;28;19914;-57
2022/11/17 06:10:33;;;;;;;5.87;2.10;;;;;;;14.41;100.00;98265.66;4996399;28;20269;-57
2022/11/17 06:12:59;;;;;;;8.73;2.17;;;;;;;14.61;100.00;98263.88;4991519;28;20038;-57
2022/11/17 06:15:25;;;;;;;9.40;2.13;;;;;;;14.69;100.00;98260.53;5001834;28;20034;-59
2022/11/17 06:17:58;;;;;;;11.32;2.75;;;;;;;14.77;100.00;98259.97;4988961;28;20111;-58
2022/11/17 06:20:29;;;;;;;18.77;2.40;;;;;;;14.82;100.00;98255.59;4991174;28;20035;-56
2022/11/17 06:22:58;;;;;;;18.47;2.83;;;;;;;14.71;100.00;98269.16;4989353;28;20647;-55
2022/11/17 06:25:26;;;;;;;19.27;3.30;;;;;;;14.67;100.00;98270.00;4989495;28;20291;-57
2022/11/17 06:27:53;;;;;;;9.27;2.40;;;;;;;14.13;100.00;98275.31;4990022;28;20337;-57
2022/11/17 06:30:18;;;;;;;19.80;2.90;;;;;;;14.25;100.00;98272.25;4991744;28;20269;-57
2022/11/17 06:32:46;;;;;;;14.38;2.30;;;;;;;14.57;100.00;98270.91;4991999;28;20261;-56
2022/11/17 06:35:15;;;;;;;9.63;2.63;;;;;;;14.63;100.00;98275.13;4991035;28;20041;-54
2022/11/17 06:37:40;;;;;;;6.53;2.20;;;;;;;14.52;100.00;98273.63;4992159;28;20353;-55
2022/11/17 06:40:06;;;;;;;12.80;2.63;;;;;;;14.56;100.00;98278.16;4988552;28;20286;-54
2022/11/17 06:45:15;;;;;;;12.43;1.67;;;;;;;14.56;100.00;98278.16;4987962;28;20045;-51
2022/11/17 06:47:40;;;;;;;10.63;2.60;;;;;;;14.42;100.00;98286.09;4981500;28;20272;-58
2022/11/17 06:50:07;;;;;;;10.52;2.28;;;;;;;14.42;100.00;98286.09;4988515;28;20030;-53
2022/11/17 06:52:33;;;;;;;14.70;2.28;;;;;;;14.48;100.00;98294.91;4989643;28;20057;-53
2022/11/17 06:54:58;;;;;;;18.37;2.60;;;;;;;14.76;100.00;98298.72;4987459;28;20047;-56
2022/11/17 06:57:24;;;;;;;7.72;2.05;;;;;;;14.45;100.00;98301.66;4992067;28;20078;-54
2022/11/17 06:59:51;;;;;;;11.05;1.95;;;;;;;14.19;100.00;98299.19;4990428;28;20099;-55
2022/11/17 07:02:17;;;;;;;11.40;2.57;;;;;;;14.78;100.00;98301.09;4988042;28;20037;-55
2022/11/17 07:04:43;;;;;;;20.10;2.97;;;;;;;14.88;100.00;98319.03;4988117;28;20290;-57
2022/11/17 07:07:11;;;;;;;15.90;2.30;;;;;;;14.47;100.00;98312.94;4986593;28;20043;-55
2022/11/17 07:09:36;;;;;;;18.33;2.63;;;;;;;14.43;100.00;98306.53;4990522;28;20030;-52
2022/11/17 07:12:02;;;;;;;20.10;2.40;;;;;;;14.06;100.00;98337.44;4988987;28;20320;-56
2022/11/17 07:14:27;;;;;;;14.45;1.75;;;;;;;14.02;100.00;98320.28;4987675;28;20027;-55
2022/11/17 07:16:53;;;;;;;11.03;2.07;;;;;;;14.63;100.00;98331.63;4983665;28;20035;-57
2022/11/17 07:19:18;;;;;;;9.67;2.43;;;;;;;14.51;100.00;98318.56;4987463;28;20273;-52
2022/11/17 07:21:44;;;;;;;12.80;1.80;;;;;;;14.37;100.00;98315.72;4990825;28;20034;-54
2022/11/17 07:24:09;;;;;;;12.67;1.93;;;;;;;14.27;100.00;98340.81;4988524;28;20102;-54
2022/11/17 07:26:35;;;;;;;9.10;1.27;;;;;;;14.32;100.00;98331.91;4991554;28;20277;-55
2022/11/17 07:29:00;;;;;;;9.57;1.53;;;;;;;14.28;100.00;98323.59;4989699;28;20278;-53
2022/11/17 07:31:26;;;;;;;10.70;1.92;;;;;;;13.95;100.00;98331.34;4986591;28;20051;-54
2022/11/17 07:33:52;;;;;;;12.93;3.08;;;;;;;14.12;100.00;98335.53;4988742;28;20039;-55
2022/11/17 07:36:18;;;;;;;13.80;2.40;;;;;;;14.03;100.00;98346.06;4989118;28;20043;-55
2022/11/17 07:38:44;;;;;;;10.82;1.73;;;;;;;14.19;100.00;98350.25;4988037;28;20042;-54
2022/11/17 07:41:12;;;;;;;31.20;2.67;;;;;;;13.85;100.00;98351.03;4989560;28;20110;-56
2022/11/17 07:43:38;;;;;;;19.80;1.93;;;;;;;13.89;100.00;98360.16;4988425;28;21794;-57
2022/11/17 07:46:09;;;;;;;15.32;1.40;;;;;;;13.67;100.00;98373.16;4986670;28;20277;-56
2022/11/17 07:48:35;;;;;;;12.80;2.03;;;;;;;13.52;100.00;98396.31;4987888;28;20035;-54
2022/11/17 07:51:04;;;;;;;7.97;1.50;;;;;;;13.32;100.00;98376.50;4986483;28;20315;-56
2022/11/17 07:53:32;;;;;;;7.70;1.73;;;;;;;13.55;100.00;98363.53;4985180;28;20038;-52
2022/11/17 07:56:05;;;;;;;12.47;1.60;;;;;;;13.85;100.00;98375.22;4984191;28;20359;-56
2022/11/17 07:58:31;;;;;;;5.93;1.43;;;;;;;14.16;100.00;98396.53;4988239;28;20303;-55
2022/11/17 08:00:57;;;;;;;8.45;1.77;;;;;;;13.50;100.00;98385.06;4988436;28;20265;-56
2022/11/17 08:03:23;;;;;;;16.15;2.60;;;;;;;13.38;100.00;98376.47;4986472;28;20070;-55
2022/11/17 08:05:49;;;;;;;7.68;1.60;;;;;;;13.61;100.00;98386.63;4990241;28;20027;-51
2022/11/17 08:08:14;;;;;;;6.97;1.73;;;;;;;13.48;100.00;98374.56;4987524;28;20090;-56
2022/11/17 08:10:41;;;;;;;10.37;2.07;;;;;;;13.34;100.00;98382.38;4988292;28;20043;-51
2022/11/17 08:13:08;;;;;;;7.77;2.67;;;;;;;13.53;100.00;98395.25;4994048;28;20038;-55
2022/11/17 08:15:33;;;;;;;9.10;1.85;;;;;;;13.33;100.00;98383.47;4989432;28;20292;-53
2022/11/17 08:18:00;;;;;;;8.63;1.60;;;;;;;13.17;100.00;98400.72;4989944;28;20050;-54
2022/11/17 08:20:28;;;;;;;17.57;2.57;;;;;;;13.19;100.00;98406.59;4990409;28;20031;-57
2022/11/17 08:22:54;;;;;;;3.97;1.50;;;;;;;13.75;100.00;98397.56;4988800;28;20297;-53
2022/11/17 08:25:20;;;;;;;10.13;1.98;;;;;;;13.75;100.00;98394.88;4985291;28;20285;-55
2022/11/17 08:27:50;;;;;;;8.43;1.80;;;;;;;13.65;100.00;98407.56;4987471;28;20057;-54
2022/11/17 08:30:19;;;;;;;6.80;2.23;;;;;;;13.56;100.00;98402.75;4987886;28;20280;-56
2022/11/17 08:32:50;;;;;;;9.83;2.20;;;;;;;13.76;100.00;98401.03;4990293;28;20300;-54
2022/11/17 08:35:17;;;;;;;4.87;1.60;;;;;;;13.85;100.00;98385.16;4988411;28;20307;-56
2022/11/17 08:37:43;;;;;;;5.77;1.80;;;;;;;13.67;100.00;98402.72;4990765;28;20269;-56
2022/11/17 08:40:10;;;;;;;4.33;1.80;;;;;;;13.85;100.00;98402.09;4987860;28;20279;-54
2022/11/17 08:42:35;;;;;;;;;;;;;;;13.92;100.00;98425.94;4984400;28;20273;-54
2022/11/17 08:45:00;;;;;;;10.07;2.10;;;;;;;13.85;100.00;98407.47;4990876;28;19918;-54
2022/11/17 08:47:25;;;;;;;9.87;1.63;;;;;;;13.62;100.00;98411.59;4988291;28;20039;-53
2022/11/17 08:49:51;;;;;;;11.13;1.85;;;;;;;13.88;100.00;98406.91;4987992;28;20035;-56
2022/11/17 08:52:18;;;;;;;9.47;2.07;;;;;;;13.45;100.00;98410.03;4990713;28;20039;-56
2022/11/17 08:54:44;;;;;;;8.13;1.70;;;;;;;13.97;100.00;98411.69;4998334;28;20295;-53
2022/11/17 08:57:10;;;;;;;6.88;1.50;;;;;;;13.77;100.00;98426.81;4985788;28;20293;-55
2022/11/17 08:59:35;;;;;;;6.63;1.60;;;;;;;13.61;100.00;98420.72;4990099;28;20053;-54
2022/11/17 09:02:01;;;;;;;11.25;2.03;;;;;;;13.67;100.00;98446.47;4986824;28;20034;-53
2022/11/17 09:04:26;;;;;;;10.33;2.87;;;;;;;13.65;100.00;98429.03;4985713;28;20070;-55
2022/11/17 09:06:52;;;;;;;5.80;1.70;;;;;;;13.56;100.00;98431.50;4982557;28;20269;-57
2022/11/17 09:09:17;;;;;;;7.05;1.50;;;;;;;13.50;100.00;98433.38;4986405;28;20043;-53
2022/11/17 09:11:43;;;;;;;5.07;1.97;;;;;;;13.37;100.00;98425.88;4990449;28;20066;-56
2022/11/17 09:14:08;;;;;;;4.30;1.43;;;;;;;14.24;100.00;98437.31;4991843;28;20284;-56
2022/11/17 09:16:35;;;;;;;6.50;1.67;;;;;;;13.73;100.00;98440.03;4991907;28;20055;-55
2022/11/17 09:19:01;;;;;;;;;;;;;;;13.89;100.00;98435.38;4993873;28;20034;-53
2022/11/17 09:21:28;;;;;;;7.43;1.60;;;;;;;13.94;100.00;98444.50;4993533;28;19917;-54
2022/11/17 09:23:54;;;;;;;7.40;1.60;;;;;;;14.25;100.00;98465.81;4990317;28;20277;-53
2022/11/17 09:26:20;;;;;;;8.57;1.30;;;;;;;13.93;100.00;98450.94;4991713;28;20278;-55
2022/11/17 09:28:45;;;;;;;5.57;1.50;;;;;;;14.48;100.00;98486.63;4989643;28;20039;-54
2022/11/17 09:31:14;;;;;;;6.47;1.45;;;;;;;14.14;100.00;98455.13;4991918;28;20050;-55
2022/11/17 09:33:41;;;;;;;4.93;1.77;;;;;;;13.67;100.00;98456.44;4991889;28;20048;-57
2022/11/17 09:36:08;;;;;;;9.07;2.40;;;;;;;14.41;100.00;98477.28;4993700;28;20292;-56
2022/11/17 09:38:35;;;;;;;18.63;3.03;;;;;;;14.74;100.00;98473.03;4988401;28;20336;-52
2022/11/17 09:41:10;;;;;;;4.72;1.73;;;;;;;13.34;100.00;98492.44;4993086;28;20280;-55
2022/11/17 09:43:38;;;;;;;11.30;2.20;;;;;;;14.49;100.00;98463.25;4986555;28;20046;-55
2022/11/17 09:46:32;;;;;;;3.97;1.47;;;;;;;14.18;100.00;98482.25;4989984;28;20276;-58
2022/11/17 09:49:16;;;;;;;6.70;1.70;;;;;;;13.50;100.00;98497.81;4994071;28;20268;-55
2022/11/17 09:51:46;;;;;;;9.33;2.50;;;;;;;13.45;100.00;98505.91;4987716;28;20280;-53
2022/11/17 09:54:27;;;;;;;5.07;1.70;;;;;;;14.14;100.00;98491.94;4991087;28;20285;-56
2022/11/17 09:56:57;;;;;;;35.23;2.57;;;;;;;13.86;100.00;98492.34;4997221;28;20277;-55
2022/11/17 09:59:26;;;;;;;4.97;1.63;;;;;;;13.80;100.00;98496.13;4993346;28;20272;-56
2022/11/17 10:01:51;;;;;;;7.40;2.00;;;;;;;13.57;100.00;98492.16;4989735;28;20268;-53
2022/11/17 10:04:17;;;;;;;4.67;1.73;;;;;;;13.65;100.00;98480.84;4989292;28;20316;-55
2022/11/17 10:06:46;;;;;;;8.13;1.88;;;;;;;13.36;100.00;98489.50;4989318;28;20307;-54
2022/11/17 10:09:24;;;;;;;8.43;1.73;;;;;;;13.45;100.00;98492.47;4991974;28;20049;-55
2022/11/17 10:11:51;;;;;;;7.30;1.70;;;;;;;13.74;100.00;98503.41;4989155;28;20284;-56
2022/11/17 10:14:20;;;;;;;5.37;1.60;;;;;;;13.45;100.00;98501.31;4989966;28;20277;-51
2022/11/17 10:16:52;;;;;;;13.40;3.10;;;;;;;13.36;100.00;98513.66;4991053;28;20291;-53
2022/11/17 10:19:31;;;;;;;7.67;2.00;;;;;;;13.50;100.00;98516.63;4989476;28;20290;-53
2022/11/17 10:22:00;;;;;;;8.57;2.47;;;;;;;13.61;100.00;98501.28;4990856;28;20280;-54
2022/11/17 10:24:41;;;;;;;11.87;2.10;;;;;;;13.60;100.00;98511.22;4989539;28;20317;-55
2022/11/17 10:27:16;;;;;;;8.63;1.80;;;;;;;13.45;100.00;98538.13;4985259;28;20303;-55
2022/11/17 10:29:55;;;;;;;6.77;1.80;;;;;;;13.45;100.00;98513.94;4988481;28;20288;-54
2022/11/17 10:32:20;;;;;;;3.57;1.30;;;;;;;13.52;100.00;98525.19;4990077;28;20335;-53
2022/11/17 10:34:46;;;;;;;14.20;2.10;;;;;;;13.54;100.00;98522.25;4980012;28;20268;-53
2022/11/17 10:37:11;;;;;;;13.37;2.43;;;;;;;13.48;100.00;98532.19;4991627;28;20074;-52
2022/11/17 10:39:41;;;;;;;5.07;2.73;;;;;;;13.55;100.00;98540.75;4992223;28;20035;-54
2022/11/17 10:42:26;;;;;;;10.47;2.00;;;;;;;13.68;100.00;98542.09;5014534;28;20027;-52
2022/11/17 10:44:56;;;;;;;7.13;1.70;;;;;;;13.66;100.00;98528.13;4990515;28;20289;-51
2022/11/17 10:47:39;;;;;;;8.67;1.93;;;;;;;13.73;100.00;98552.03;4988871;28;20356;-51
2022/11/17 10:50:26;;;;;;;8.87;2.10;;;;;;;13.87;100.00;98538.81;4991369;28;20288;-51
2022/11/17 10:52:53;;;;;;;10.65;2.08;;;;;;;13.73;100.00;98546.66;4989577;28;20292;-51
2022/11/17 10:55:25;;;;;;;6.97;1.57;;;;;;;13.88;100.00;98548.47;4973543;28;20050;-56
2022/11/17 10:58:22;;;;;;;9.83;1.77;;;;;;;14.14;100.00;98554.56;4967278;28;20273;-54
2022/11/17 11:00:55;;;;;;;7.90;1.80;;;;;;;13.81;100.00;98559.50;4969125;29;20288;-52
2022/11/17 11:03:27;;;;;;;16.40;1.80;;;;;;;13.99;100.00;98551.94;4968855;28;20334;-52
2022/11/17 11:05:59;;;;;;;8.90;2.57;;;;;;;14.19;100.00;98541.09;4972588;29;20303;-52
2022/11/17 11:08:34;;;;;;;13.13;2.43;;;;;;;14.28;100.00;98551.28;4968924;28;20273;-52
2022/11/17 11:11:06;;;;;;;12.17;1.83;;;;;;;14.21;100.00;98540.84;4966377;29;20289;-54
2022/11/17 11:13:39;;;;;;;8.33;2.50;;;;;;;14.01;100.00;98547.09;4966322;28;20265;-55
2022/11/17 11:16:09;;;;;;;11.33;3.90;;;;;;;14.13;100.00;98587.09;4968879;28;20348;-55
2022/11/17 11:18:35;;;;;;;10.50;2.40;;;;;;;14.40;100.00;98559.00;4969227;28;20299;-55
2022/11/17 11:21:06;;;;;;;11.60;1.83;;;;;;;14.05;100.00;98553.53;4966522;28;20273;-57
2022/11/17 11:23:47;;;;;;;11.40;1.73;;;;;;;13.86;100.00;98551.47;4968647;28;20046;-52
2022/11/17 11:26:35;;;;;;;9.17;1.90;;;;;;;13.81;100.00;98546.06;4965620;28;20281;-54
2022/11/17 11:29:16;;;;;;;8.40;2.17;;;;;;;13.78;100.00;98554.69;4965107;28;20278;-51
2022/11/17 11:32:15;;;;;;;8.33;1.93;;;;;;;17.20;100.00;98556.97;4965369;29;20305;-55
2022/11/17 11:35:18;;;;;;;5.80;1.77;;;;;;;13.86;100.00;98582.88;4963838;28;20288;-54
2022/11/17 11:38:25;;;;;;;10.37;1.83;;;;;;;14.11;100.00;98576.63;4963212;28;20273;-53
2022/11/17 11:41:03;;;;;;;9.50;1.93;;;;;;;13.70;100.00;98584.78;4965796;29;20361;-54
2022/11/17 11:43:50;;;;;;;4.90;2.40;;;;;;;14.33;100.00;98583.53;4964569;28;20285;-48
2022/11/17 11:46:33;;;;;;;6.65;1.50;;;;;;;13.55;100.00;98580.25;4968345;28;20292;-54
2022/11/17 11:49:15;;;;;;;6.57;1.87;;;;;;;13.50;100.00;98596.38;4970082;28;20042;-54
2022/11/17 11:51:42;;;;;;;4.77;1.70;;;;;;;13.58;100.00;98601.19;4966223;28;20294;-53
2022/11/17 11:54:17;;;;;;;8.13;1.77;;;;;;;13.71;100.00;98597.16;4970673;28;20451;-55
2022/11/17 11:56:46;;;;;;;7.00;1.67;;;;;;;13.62;100.00;98578.09;4987030;28;20261;-57
2022/11/17 11:59:49;;;;;;;6.33;1.47;;;;;;;13.59;100.00;98587.47;4986566;28;20276;-55
2022/11/17 12:02:21;;;;;;;10.20;3.20;;;;;;;13.71;100.00;98584.50;4981521;28;20363;-51
2022/11/17 12:05:09;;;;;;;7.87;2.97;;;;;;;14.02;100.00;98578.25;4971498;28;20275;-54